Flight Track Log - Related Links

Times and Time Zones

All times are in EDT time to prevent confusion due to time zone crossing. See the USC421 flight status page for this flight to view local times or setup timezone preferences in your user account.


Time Position Orientation Groundspeed Altitude Reporting Facility
EDT Latitude Longitude Course Direction KTS MPH feet Rate Location/Type
Thu 01:36:58 AM 39.5500 -104.8167 90° East 213 245 7,400  Level Denver TRACON
Thu 01:37:56 AM 39.5500 -104.7333 90° East 243 280 9,200 1,800 Climbing Denver TRACON
Thu 01:38:58 AM 39.5500 -104.6333 90° East 308 354 11,000 2,815 Climbing Denver TRACON
Thu 01:40:06 AM 39.5808 -104.5094 72° East 316 364 15,300 3,488 Climbing Denver Center
Thu 01:41:07 AM 39.6156 -104.4047 67° East 323 372 18,500 2,826 Climbing Denver Center
Thu 01:42:07 AM 39.6403 -104.2897 74° East 334 384 21,000 2,400 Climbing Denver Center
Thu 01:43:07 AM 39.6719 -104.1683 71° East 349 402 23,300 2,132 Climbing Denver Center
Thu 01:44:08 AM 39.7042 -104.0369 72° East 376 433 25,300 1,983 Climbing Denver Center
Thu 01:45:08 AM 39.7378 -103.8986 72° East 397 457 27,300 2,000 Climbing Denver Center
Thu 01:46:08 AM 39.7719 -103.7536 73° East 418 481 29,300 1,934 Climbing Denver Center
Thu 01:47:09 AM 39.8047 -103.6036 74° East 428 493 31,200 1,736 Climbing Denver Center
Thu 01:48:09 AM 39.8400 -103.4506 73° East 439 505 32,800 1,500 Climbing Denver Center
Thu 01:49:09 AM 39.8769 -103.2925 73° East 456 525 34,200 1,537 Climbing Denver Center
Thu 01:50:10 AM 39.9139 -103.1339 73° East 458 527 35,900 1,537 Climbing Denver Center
Thu 01:51:10 AM 39.9492 -102.9736 74° East 459 528 37,300 1,450 Climbing Denver Center
Thu 01:52:10 AM 39.9864 -102.8169 73° East 457 526 38,800 1,289 Climbing Denver Center
Thu 01:53:11 AM 40.0203 -102.6531 75° East 457 526 39,900 992 Climbing Denver Center
Thu 01:54:11 AM 40.0550 -102.4997 73° East 459 528 40,800 550 Climbing Denver Center
Thu 01:55:11 AM 40.0933 -102.3158 75° East 467 537 41,000 99 Climbing Denver Center
Thu 01:56:12 AM 40.1308 -102.1544 73° East 482 555 41,000  Level Denver Center
Thu 01:57:12 AM 40.1661 -101.9878 74° East 495 570 41,000  Level Denver Center
Thu 01:58:12 AM 40.2097 -101.7944 73° East 498 573 41,000  Level Denver Center
Thu 01:59:13 AM 40.2439 -101.6269 75° East 498 573 41,000  Level Denver Center
Thu 02:00:13 AM 40.2800 -101.4619 74° East 497 572 41,000  Level Denver Center
Thu 02:01:13 AM 40.3128 -101.2958 75° East 497 572 41,000  Level Denver Center
Thu 02:02:14 AM 40.3556 -101.1039 74° East 496 571 41,000  Level Denver Center
Thu 02:03:14 AM 40.3878 -100.9386 76° East 494 568 41,000  Level Denver Center
Thu 02:04:15 AM 40.4217 -100.7747 75° East 494 568 41,000  Level Denver Center
Thu 02:05:15 AM 40.4614 -100.5825 75° East 494 568 41,000  Level Denver Center
Thu 02:06:15 AM 40.4950 -100.4150 75° East 494 568 41,000  Level Denver Center
Thu 02:07:16 AM 40.5281 -100.2458 76° East 499 574 41,000  Level Denver Center
Thu 02:08:16 AM 40.5678 -100.0492 75° East 501 577 41,000  Level Denver Center
Thu 02:09:16 AM 40.5997 -99.8772 76° East 503 579 41,000  Level Denver Center
Thu 02:10:17 AM 40.6378 -99.6967 74° East 504 580 41,000  Level Denver Center
Thu 02:11:00 AM 40.6625 -99.5525 77° East 503 579 41,000  Level Minneapolis Center
Thu 02:12:00 AM 40.6969 -99.3747 76° East 504 580 41,000  Level Minneapolis Center
Thu 02:13:00 AM 40.7311 -99.1989 76° East 503 579 41,000  Level Minneapolis Center
Thu 02:14:01 AM 40.7578 -99.0444 77° East 502 578 41,000  Level Minneapolis Center
Thu 02:15:01 AM 40.7936 -98.8678 75° East 502 578 41,000  Level Minneapolis Center
Thu 02:16:01 AM 40.8250 -98.6900 77° East 501 577 41,000  Level Minneapolis Center
Thu 02:17:01 AM 40.8594 -98.5133 75° East 501 577 41,000  Level Minneapolis Center
Thu 02:18:01 AM 40.8925 -98.3206 77° East 498 573 41,000  Level Minneapolis Center
Thu 02:19:02 AM 40.9253 -98.1458 76° East 498 573 41,000  Level Minneapolis Center
Thu 02:20:02 AM 40.9550 -97.9683 77° East 497 572 41,000  Level Minneapolis Center
Thu 02:21:02 AM 40.9875 -97.7922 76° East 496 571 41,000 -700 Level Minneapolis Center
Thu 02:22:02 AM 41.0147 -97.6158 78° East 496 571 39,600 -1,875 Descending Minneapolis Center
Thu 02:22:22 AM 41.0042 -97.5511 102° East 494 568 38,500 -3,100 Descending Minneapolis Center
Thu 02:23:02 AM 41.0467 -97.4378 64° Northeast 495 570 36,500 -2,614 Descending Minneapolis Center
Thu 02:24:03 AM 41.0764 -97.2758 76° East 495 570 34,100 -3,140 Descending Minneapolis Center
Thu 02:24:28 AM 41.0781 -97.1772 89° East 480 552 32,000 -4,000 Descending Minneapolis Center
Thu 02:25:03 AM 41.1050 -97.1042 64° Northeast 486 559 30,100 -4,182 Descending Minneapolis Center
Thu 02:25:34 AM 41.1075 -96.9919 88° East 488 562 27,400 -4,000 Descending Minneapolis Center
Thu 02:26:03 AM 41.1350 -96.9211 63° Northeast 485 558 26,100 -2,951 Descending Minneapolis Center
Thu 02:26:35 AM 41.1417 -96.8253 85° East 463 533 24,400 -2,800 Descending Minneapolis Center
Thu 02:27:03 AM 41.1644 -96.7653 63° Northeast 465 535 23,300 -3,049 Descending Minneapolis Center
Thu 02:27:36 AM 41.1700 -96.6647 86° East 441 507 21,300 -3,100 Descending Minneapolis Center
Thu 02:28:03 AM 41.1914 -96.6069 64° Northeast 445 512 20,200 -4,000 Descending Minneapolis Center
Thu 02:28:36 AM 41.2147 -96.5050 73° East 420 483 17,300 -3,836 Descending Minneapolis Center
Thu 02:29:04 AM 41.2331 -96.4628 60° Northeast 424 488 16,300 -3,344 Descending Minneapolis Center
Thu 02:29:37 AM 41.2542 -96.3650 74° East 400 460 13,900 -3,600 Descending Minneapolis Center
Thu 02:30:04 AM 41.2694 -96.3244 63° Northeast 407 468 12,700 -4,000 Descending Minneapolis Center
Thu 02:30:37 AM 41.2903 -96.2392 72° East 347 399 9,900 -3,900 Descending Minneapolis Center
Thu 02:31:04 AM 41.3017 -96.2033 67° East 363 418 8,800 -3,639 Descending Minneapolis Center
Thu 02:31:38 AM 41.3169 -96.1333 74° East 284 327 6,200 -3,100 Descending Minneapolis Center
Thu 02:32:04 AM 41.3272 -96.1008 67° East 316 364 5,700 -2,459 Descending Minneapolis Center
Thu 02:32:39 AM 41.3439 -96.0306 72° East 288 331 3,700 -2,700 Descending Minneapolis Center
Thu 02:33:04 AM 41.3561 -95.9869 70° East 299 344 3,000 -1,000 Descending Minneapolis Center
Thu 02:33:39 AM 41.3508 -95.9436 99° East 232 267 2,700 -689 Descending Minneapolis Center
Thu 02:34:05 AM 41.3375 -95.9214 129° Southeast 236 272 2,300 -1,186 Descending Minneapolis Center
Thu 02:35:05 AM 41.3064 -95.8931 146° Southeast 173 199 1,000 -1,300 Descending Minneapolis Center

Login

Don't have an account? Register now (free) for customized features, flight alerts, and more!